createdAt,value
2022-08-06T00:00:03.085Z,1.15
2022-08-06T00:02:22.921Z,1.00
2022-08-06T00:04:55.231Z,1.25
2022-08-06T00:07:22.708Z,1.10
2022-08-06T00:09:59.894Z,1.15
2022-08-06T00:12:28.303Z,1.20
2022-08-06T00:14:56.502Z,1.10
2022-08-06T00:17:24.456Z,1.25
2022-08-06T00:19:58.521Z,1.20
2022-08-06T00:22:29.217Z,1.20
2022-08-06T00:24:56.204Z,1.40
2022-08-06T00:27:25.006Z,1.20
2022-08-06T00:29:56.162Z,0.90
2022-08-06T00:32:28.118Z,1.23
2022-08-06T00:34:55.561Z,1.20
2022-08-06T00:37:28.639Z,1.38
2022-08-06T00:40:10.186Z,1.30
2022-08-06T00:42:36.766Z,1.17
2022-08-06T00:45:04.322Z,1.08
2022-08-06T00:48:01.105Z,1.17
2022-08-06T00:50:18.101Z,1.05
2022-08-06T00:52:48.121Z,1.10
2022-08-06T00:55:17.176Z,1.30
2022-08-06T00:57:44.458Z,1.10
2022-08-06T01:00:29.511Z,1.50
2022-08-06T01:02:56.817Z,1.30
2022-08-06T01:06:04.884Z,1.42
2022-08-06T01:08:09.908Z,1.40
2022-08-06T01:10:42.121Z,1.38
2022-08-06T01:13:23.383Z,1.40
2022-08-06T01:16:08.741Z,1.48
2022-08-06T01:19:00.040Z,1.27
2022-08-06T01:22:00.861Z,1.30
2022-08-06T01:24:24.208Z,1.38
2022-08-06T01:27:05.953Z,1.30
2022-08-06T01:29:37.701Z,1.20
2022-08-06T01:32:31.925Z,1.25
2022-08-06T01:35:05.424Z,1.15
2022-08-06T01:37:44.189Z,1.40
2022-08-06T01:40:17.536Z,1.23
2022-08-06T01:42:44.980Z,1.20
2022-08-06T01:45:32.322Z,1.30
2022-08-06T01:48:11.447Z,1.25
2022-08-06T01:50:42.501Z,1.00
2022-08-06T01:53:15.809Z,1.10
2022-08-06T01:55:58.442Z,0.93
2022-08-06T01:58:30.379Z,1.02
2022-08-06T02:01:00.992Z,1.05
2022-08-06T02:03:50.333Z,1.40
2022-08-06T02:06:32.982Z,1.10
2022-08-06T02:09:21.877Z,1.17
2022-08-06T02:12:03.878Z,1.00
2022-08-06T02:14:32.927Z,1.13
2022-08-06T02:17:13.807Z,0.95
2022-08-06T02:19:48.539Z,1.23
2022-08-06T02:22:27.900Z,1.38
2022-08-06T02:24:58.337Z,1.08
2022-08-06T02:27:43.786Z,1.20
2022-08-06T02:30:15.729Z,1.27
2022-08-06T02:32:45.499Z,1.42
2022-08-06T02:35:12.938Z,1.50
2022-08-06T02:38:02.133Z,1.30
2022-08-06T02:40:34.484Z,1.20
2022-08-06T02:43:09.678Z,1.30
2022-08-06T02:45:38.229Z,1.50
2022-08-06T02:48:09.222Z,1.30
2022-08-06T02:50:37.451Z,1.45
2022-08-06T02:53:31.161Z,1.40
2022-08-06T02:56:07.371Z,1.40
2022-08-06T02:58:38.379Z,1.27
2022-08-06T03:01:08.916Z,1.40
2022-08-06T03:03:36.018Z,1.48
2022-08-06T03:06:08.078Z,1.13
2022-08-06T03:08:39.726Z,1.50
2022-08-06T03:11:06.802Z,1.20
2022-08-06T03:13:35.708Z,1.30
2022-08-06T03:16:03.094Z,1.40
2022-08-06T03:18:30.497Z,1.25
2022-08-06T03:20:57.688Z,1.35
2022-08-06T03:23:26.871Z,1.45
2022-08-06T03:25:56.653Z,1.50
2022-08-06T03:28:33.870Z,1.40
2022-08-06T03:31:01.832Z,1.15
2022-08-06T03:33:54.077Z,1.40
2022-08-06T03:36:17.807Z,1.40
2022-08-06T03:38:48.275Z,1.30
2022-08-06T03:41:21.166Z,1.50
2022-08-06T03:44:03.287Z,1.25
2022-08-06T03:46:35.337Z,1.40
2022-08-06T03:49:04.486Z,1.37
2022-08-06T03:51:52.520Z,1.20
2022-08-06T03:54:28.462Z,1.10
2022-08-06T03:57:01.513Z,0.82
2022-08-06T03:59:38.033Z,1.00
2022-08-06T04:02:24.391Z,0.80
2022-08-06T04:04:58.803Z,0.88
2022-08-06T04:07:25.792Z,0.90
2022-08-06T04:10:12.455Z,0.85
2022-08-06T04:12:58.928Z,0.85
2022-08-06T04:15:25.900Z,1.00
2022-08-06T04:17:54.543Z,0.73
2022-08-06T04:20:41.210Z,0.75
2022-08-06T04:23:10.344Z,0.90
2022-08-06T04:25:45.261Z,0.80
2022-08-06T04:28:15.274Z,1.23
2022-08-06T04:30:47.262Z,0.80
2022-08-06T04:33:19.922Z,0.45
2022-08-06T04:36:02.789Z,0.60
2022-08-06T04:38:34.357Z,0.60
2022-08-06T04:41:03.137Z,0.68
2022-08-06T04:43:38.551Z,0.60
2022-08-06T04:46:20.324Z,0.70
2022-08-06T04:48:48.474Z,0.55
2022-08-06T04:52:36.458Z,0.60
2022-08-06T04:54:07.172Z,0.77
2022-08-06T04:56:41.736Z,0.57
2022-08-06T04:59:15.874Z,0.65
2022-08-06T05:01:56.896Z,0.50
2022-08-06T05:04:26.915Z,0.60
2022-08-06T05:06:56.785Z,0.70
2022-08-06T05:09:42.090Z,0.60
2022-08-06T05:12:16.893Z,0.70
2022-08-06T05:14:49.318Z,0.65
2022-08-06T05:17:18.139Z,0.60
2022-08-06T05:19:53.913Z,0.70
2022-08-06T05:22:52.339Z,0.70
2022-08-06T05:25:16.332Z,0.80
2022-08-06T05:28:03.953Z,0.75
2022-08-06T05:30:32.801Z,0.70
2022-08-06T05:33:02.481Z,0.82
2022-08-06T05:35:40.231Z,0.82
2022-08-06T05:38:11.059Z,1.25
2022-08-06T05:40:52.391Z,0.60
2022-08-06T05:43:20.567Z,0.70
2022-08-06T05:45:48.427Z,0.60
2022-08-06T05:48:18.238Z,0.70
2022-08-06T05:50:58.663Z,0.60
2022-08-06T05:54:04.621Z,0.50
2022-08-06T05:56:39.202Z,0.60
2022-08-06T05:59:16.305Z,0.50
2022-08-06T06:01:59.060Z,0.43
2022-08-06T06:04:33.319Z,0.38
2022-08-06T06:07:04.297Z,0.35
2022-08-06T06:09:56.345Z,0.45
2022-08-06T06:12:18.606Z,0.50
2022-08-06T06:14:49.875Z,0.30
2022-08-06T06:17:19.343Z,0.30
2022-08-06T06:19:56.991Z,0.30
2022-08-06T06:22:27.737Z,0.30
2022-08-06T06:25:07.466Z,0.30
2022-08-06T06:27:45.804Z,0.40
2022-08-06T06:30:40.513Z,0.40
2022-08-06T06:33:41.097Z,0.30
2022-08-06T06:36:29.820Z,0.32
2022-08-06T06:39:01.147Z,0.30
2022-08-06T06:41:37.890Z,0.40
2022-08-06T06:45:03.623Z,0.25
2022-08-06T06:47:31.549Z,0.30
2022-08-06T06:50:23.608Z,0.20
2022-08-06T06:52:51.005Z,0.30
2022-08-06T06:55:20.574Z,0.25
2022-08-06T06:58:10.344Z,0.20
2022-08-06T07:00:43.957Z,0.20
2022-08-06T07:03:14.045Z,0.30
2022-08-06T07:06:04.766Z,0.20
2022-08-06T07:08:37.201Z,0.20
2022-08-06T07:11:05.846Z,0.20
2022-08-06T07:13:47.366Z,0.20
2022-08-06T07:16:22.624Z,0.35
2022-08-06T07:19:04.271Z,0.30
2022-08-06T07:21:31.106Z,0.40
2022-08-06T07:24:07.903Z,0.40
2022-08-06T07:26:48.127Z,0.40
2022-08-06T07:29:48.539Z,0.32
2022-08-06T07:32:05.478Z,0.40
2022-08-06T07:34:34.253Z,0.45
2022-08-06T07:37:01.021Z,0.47
2022-08-06T07:39:38.972Z,0.30
2022-08-06T07:42:11.979Z,0.38
2022-08-06T07:44:54.283Z,0.40
2022-08-06T07:47:24.895Z,0.50
2022-08-06T07:50:03.990Z,0.50
2022-08-06T07:52:32.299Z,0.50
2022-08-06T07:55:00.276Z,0.40
2022-08-06T07:57:32.671Z,0.50
2022-08-06T08:00:15.095Z,0.40
2022-08-06T08:02:41.973Z,0.50
2022-08-06T08:05:38.958Z,0.50
2022-08-06T08:08:06.368Z,0.35
2022-08-06T08:10:36.089Z,0.50
2022-08-06T08:13:03.460Z,0.40
2022-08-06T08:15:32.408Z,0.40
2022-08-06T08:18:01.231Z,0.50
2022-08-06T08:20:30.526Z,0.50
2022-08-06T08:23:00.526Z,0.40
2022-08-06T08:25:40.185Z,0.40
2022-08-06T08:28:12.743Z,0.40
2022-08-06T08:30:42.084Z,0.40
2022-08-06T08:33:11.235Z,0.30
2022-08-06T08:35:38.811Z,0.30
2022-08-06T08:38:05.336Z,0.40
2022-08-06T08:40:35.842Z,0.22
2022-08-06T08:43:06.399Z,0.30
2022-08-06T08:45:35.956Z,0.30
2022-08-06T08:48:03.466Z,0.30
2022-08-06T08:50:30.633Z,0.30
2022-08-06T08:52:59.824Z,0.35
2022-08-06T08:57:09.426Z,0.50
2022-08-06T08:58:39.219Z,0.20
2022-08-06T09:01:00.565Z,0.50
2022-08-06T09:03:27.196Z,0.40
2022-08-06T09:05:54.088Z,0.35
2022-08-06T09:08:59.572Z,0.40
2022-08-06T09:11:20.704Z,0.30
2022-08-06T09:13:57.457Z,0.30
2022-08-06T09:16:31.835Z,0.30
2022-08-06T09:18:59.758Z,0.38
2022-08-06T09:21:30.335Z,0.30
2022-08-06T09:23:58.679Z,0.30
2022-08-06T09:26:45.314Z,0.30
2022-08-06T09:29:22.942Z,0.30
2022-08-06T09:31:50.024Z,0.38
2022-08-06T09:34:33.108Z,0.30
2022-08-06T09:37:07.489Z,0.35
2022-08-06T09:40:00.197Z,0.43
2022-08-06T09:42:39.095Z,0.40
2022-08-06T09:45:06.348Z,0.32
2022-08-06T09:47:43.343Z,0.40
2022-08-06T09:50:14.258Z,0.30
2022-08-06T09:53:14.109Z,0.35
2022-08-06T09:55:41.843Z,0.30
2022-08-06T09:58:08.687Z,0.30
2022-08-06T10:00:37.717Z,0.40
2022-08-06T10:04:01.868Z,0.40
2022-08-06T10:06:10.781Z,0.52
2022-08-06T10:08:41.515Z,0.30
2022-08-06T10:11:08.875Z,0.35
2022-08-06T10:13:44.024Z,0.25
2022-08-06T10:16:18.303Z,0.30
2022-08-06T10:18:56.782Z,0.30
2022-08-06T10:21:41.141Z,0.38
2022-08-06T10:24:09.541Z,0.30
2022-08-06T10:26:36.449Z,0.20
2022-08-06T10:29:07.979Z,0.30
2022-08-06T10:31:37.309Z,0.30
2022-08-06T10:34:09.331Z,0.32
2022-08-06T10:36:36.825Z,0.40
2022-08-06T10:39:04.558Z,0.40
2022-08-06T10:42:00.674Z,0.30
2022-08-06T10:44:32.557Z,0.30
2022-08-06T10:47:05.532Z,0.30
2022-08-06T10:50:30.076Z,0.30
2022-08-06T10:52:20.052Z,0.30
2022-08-06T10:57:35.629Z,0.43
2022-08-06T11:00:06.312Z,0.30
2022-08-06T11:02:38.757Z,0.30
2022-08-06T11:05:25.732Z,0.30
2022-08-06T11:08:14.755Z,0.50
2022-08-06T11:10:59.833Z,0.20
2022-08-06T11:13:36.921Z,0.30
2022-08-06T11:16:27.739Z,0.30
2022-08-06T11:19:13.485Z,0.30
2022-08-06T11:22:03.501Z,0.30
2022-08-06T11:24:32.244Z,0.32
2022-08-06T11:27:11.019Z,0.30
2022-08-06T11:30:04.573Z,0.30
2022-08-06T11:32:45.461Z,0.20
2022-08-06T11:35:30.760Z,0.50
2022-08-06T11:38:03.346Z,0.30
2022-08-06T11:40:56.048Z,0.40
2022-08-06T11:44:02.906Z,0.38
2022-08-06T11:46:36.511Z,0.30
2022-08-06T11:49:13.418Z,0.20
2022-08-06T11:51:52.658Z,0.30
2022-08-06T11:54:28.479Z,0.28
2022-08-06T11:57:07.575Z,0.30
2022-08-06T11:59:54.315Z,0.32
2022-08-06T12:02:41.064Z,0.38
2022-08-06T12:05:14.349Z,0.30
2022-08-06T12:07:52.517Z,0.30
2022-08-06T12:10:29.304Z,0.30
2022-08-06T12:12:57.148Z,0.30
2022-08-06T12:15:53.213Z,0.20
2022-08-06T12:18:19.535Z,0.38
2022-08-06T12:20:49.365Z,0.32
2022-08-06T12:23:23.047Z,0.30
2022-08-06T12:25:56.823Z,0.30
2022-08-06T12:28:25.192Z,0.30
2022-08-06T12:30:52.444Z,0.38
2022-08-06T12:33:21.063Z,0.30
2022-08-06T12:35:51.362Z,0.47
2022-08-06T12:38:17.937Z,0.30
2022-08-06T12:40:56.287Z,0.50
2022-08-06T12:43:43.247Z,0.32
2022-08-06T12:46:10.944Z,0.25
2022-08-06T12:48:37.982Z,0.40
2022-08-06T12:51:11.173Z,0.30
2022-08-06T12:53:48.593Z,0.40
2022-08-06T12:56:30.911Z,0.40
2022-08-06T12:58:59.980Z,0.30
2022-08-06T13:02:11.894Z,0.52
2022-08-06T13:04:16.949Z,0.35
2022-08-06T13:06:44.070Z,0.30
2022-08-06T13:09:13.700Z,0.47
2022-08-06T13:11:42.348Z,0.30
2022-08-06T13:14:17.255Z,0.40
2022-08-06T13:16:54.868Z,0.47
2022-08-06T13:19:32.394Z,0.22
2022-08-06T13:22:07.371Z,0.20
2022-08-06T13:24:35.089Z,0.40
2022-08-06T13:27:05.744Z,0.50
2022-08-06T13:30:30.715Z,0.40
2022-08-06T13:32:33.282Z,0.40
2022-08-06T13:35:17.293Z,0.20
2022-08-06T13:37:56.014Z,0.40
2022-08-06T13:40:46.266Z,0.40
2022-08-06T13:43:38.208Z,0.30
2022-08-06T13:46:07.016Z,0.35
2022-08-06T13:48:35.025Z,0.30
2022-08-06T13:51:04.666Z,0.30
2022-08-06T13:53:40.318Z,0.30
2022-08-06T13:56:07.600Z,0.40
2022-08-06T13:58:37.872Z,0.30
2022-08-06T14:01:05.725Z,0.50
2022-08-06T14:03:38.254Z,0.38
2022-08-06T14:06:05.211Z,0.43
2022-08-06T14:08:35.706Z,0.40
2022-08-06T14:11:02.829Z,0.30
2022-08-06T14:13:30.246Z,0.30
2022-08-06T14:15:57.039Z,0.40
2022-08-06T14:18:28.640Z,0.30
2022-08-06T14:20:55.162Z,0.40
2022-08-06T14:23:21.618Z,0.30
2022-08-06T14:26:00.258Z,0.30
2022-08-06T14:28:29.958Z,0.30
2022-08-06T14:30:58.164Z,0.25
2022-08-06T14:33:36.717Z,0.38
2022-08-06T14:36:06.228Z,0.30
2022-08-06T14:38:34.757Z,0.30
2022-08-06T14:41:40.089Z,0.25
2022-08-06T14:44:26.014Z,0.30
2022-08-06T14:46:52.933Z,0.30
2022-08-06T14:49:19.674Z,0.30
2022-08-06T14:52:19.291Z,0.30
2022-08-06T14:54:33.176Z,0.30
2022-08-06T14:57:00.774Z,0.30
2022-08-06T14:59:32.091Z,0.22
2022-08-06T15:02:15.543Z,0.30
2022-08-06T15:04:42.130Z,0.30
2022-08-06T15:07:24.937Z,0.35
2022-08-06T15:10:05.141Z,0.30
2022-08-06T15:12:42.278Z,0.50
2022-08-06T15:15:13.735Z,0.30
2022-08-06T15:20:26.928Z,0.30
2022-08-06T15:22:53.692Z,0.20
2022-08-06T15:25:21.982Z,0.30
2022-08-06T15:28:06.941Z,0.30
2022-08-06T15:30:33.588Z,0.30
2022-08-06T15:33:00.105Z,0.50
2022-08-06T15:35:38.532Z,0.30
2022-08-06T15:38:16.102Z,0.40
2022-08-06T15:40:43.040Z,0.40
2022-08-06T15:43:12.679Z,0.30
2022-08-06T15:45:51.516Z,0.50
2022-08-06T15:48:28.903Z,0.40
2022-08-06T15:51:28.121Z,0.40
2022-08-06T15:53:53.957Z,0.60
2022-08-06T15:56:23.948Z,0.50
2022-08-06T15:59:01.205Z,0.40
2022-08-06T16:01:45.286Z,0.40
2022-08-06T16:04:14.285Z,0.30
2022-08-06T16:06:42.930Z,0.40
2022-08-06T16:09:14.510Z,0.40
2022-08-06T16:11:54.202Z,0.63
2022-08-06T16:14:33.110Z,1.50
2022-08-06T16:17:04.049Z,3.13
2022-08-06T16:19:33.977Z,4.57
2022-08-06T16:22:15.289Z,5.80
2022-08-06T16:24:43.166Z,4.68
2022-08-06T16:27:10.269Z,3.85
2022-08-06T16:29:36.788Z,3.08
2022-08-06T16:32:04.860Z,2.55
2022-08-06T16:34:36.737Z,2.28
2022-08-06T16:37:24.301Z,1.60
2022-08-06T16:39:59.928Z,1.52
2022-08-06T16:42:27.669Z,1.42
2022-08-06T16:45:00.909Z,1.20
2022-08-06T16:48:20.551Z,1.00
2022-08-06T16:55:49.873Z,0.60
2022-08-06T16:58:35.223Z,0.40
2022-08-06T17:02:15.327Z,0.50
2022-08-06T17:03:50.099Z,0.73
2022-08-06T17:06:17.486Z,0.50
2022-08-06T17:08:53.051Z,0.38
2022-08-06T17:11:44.718Z,0.45
2022-08-06T17:14:13.247Z,0.68
2022-08-06T17:19:26.986Z,0.35
2022-08-06T17:21:59.428Z,0.45
2022-08-06T17:24:36.954Z,0.50
2022-08-06T17:29:52.219Z,0.40
2022-08-06T17:32:30.055Z,0.47
2022-08-06T17:35:09.569Z,0.40
2022-08-06T17:37:42.928Z,0.40
2022-08-06T17:40:19.220Z,0.32
2022-08-06T17:42:29.618Z,0.75
2022-08-06T17:43:00.595Z,0.40
2022-08-06T17:45:31.617Z,0.47
2022-08-06T17:47:58.036Z,0.50
2022-08-06T17:50:41.681Z,0.30
2022-08-06T17:53:19.560Z,0.30
2022-08-06T17:56:00.569Z,0.30
2022-08-06T17:58:38.368Z,0.45
2022-08-06T18:01:44.150Z,0.30
2022-08-06T18:04:06.045Z,0.32
2022-08-06T18:06:33.211Z,0.47
2022-08-06T18:10:08.742Z,0.30
2022-08-06T18:11:47.098Z,0.30
2022-08-06T18:14:15.208Z,0.10
2022-08-06T18:16:58.793Z,0.40
2022-08-06T18:19:36.323Z,0.57
2022-08-06T18:22:11.919Z,0.30
2022-08-06T18:24:38.903Z,0.40
2022-08-06T18:27:52.826Z,0.60
2022-08-06T18:29:59.966Z,0.63
2022-08-06T18:32:28.304Z,0.32
2022-08-06T18:34:55.568Z,0.40
2022-08-06T18:37:22.022Z,0.95
2022-08-06T18:40:18.824Z,0.60
2022-08-06T18:42:40.414Z,0.40
2022-08-06T18:45:14.593Z,0.50
2022-08-06T18:47:41.868Z,0.30
2022-08-06T18:50:09.303Z,0.45
2022-08-06T18:52:36.109Z,0.40
2022-08-06T18:55:04.427Z,0.30
2022-08-06T18:57:57.167Z,0.30
2022-08-06T19:00:18.817Z,0.40
2022-08-06T19:02:48.889Z,0.38
2022-08-06T19:05:16.451Z,0.30
2022-08-06T19:07:49.836Z,0.20
2022-08-06T19:10:18.975Z,0.20
2022-08-06T19:12:45.901Z,0.20
2022-08-06T19:15:19.629Z,0.25
2022-08-06T19:18:10.357Z,0.20
2022-08-06T19:20:38.018Z,0.20
2022-08-06T19:23:06.830Z,0.28
2022-08-06T19:25:52.302Z,0.20
2022-08-06T19:28:34.650Z,0.20
2022-08-06T19:31:06.200Z,0.30
2022-08-06T19:33:34.950Z,0.20
2022-08-06T19:36:06.221Z,0.20
2022-08-06T19:38:38.866Z,0.30
2022-08-06T19:41:07.018Z,0.20
2022-08-06T19:44:27.611Z,0.20
2022-08-06T19:46:34.174Z,0.22
2022-08-06T19:49:03.102Z,0.20
2022-08-06T19:52:04.649Z,0.20
2022-08-06T19:54:19.547Z,0.10
2022-08-06T19:56:53.233Z,0.30
2022-08-06T20:00:55.485Z,0.22
2022-08-06T20:02:09.152Z,0.40
2022-08-06T20:04:42.889Z,0.22
2022-08-06T20:07:43.383Z,0.20
2022-08-06T20:10:35.611Z,0.20
2022-08-06T20:13:02.972Z,0.30
2022-08-06T20:15:30.473Z,0.28
2022-08-06T20:17:57.595Z,0.10
2022-08-06T20:20:28.958Z,0.40
2022-08-06T20:22:57.677Z,0.20
2022-08-06T20:25:24.304Z,0.20
2022-08-06T20:29:07.651Z,0.20
2022-08-06T20:30:49.648Z,0.20
2022-08-06T20:33:24.146Z,0.28
2022-08-06T20:35:57.976Z,0.20
2022-08-06T20:38:40.637Z,0.30
2022-08-06T20:41:58.422Z,0.30
2022-08-06T20:44:05.123Z,0.17
2022-08-06T20:47:01.184Z,0.30
2022-08-06T20:49:20.870Z,0.30
2022-08-06T20:51:56.663Z,0.30
2022-08-06T20:54:26.237Z,0.30
2022-08-06T20:56:59.025Z,0.30
2022-08-06T20:59:34.076Z,0.30
2022-08-06T21:02:04.272Z,0.40
2022-08-06T21:05:13.023Z,0.30
2022-08-06T21:07:32.076Z,0.32
2022-08-06T21:10:05.055Z,0.22
2022-08-06T21:12:45.033Z,0.30
2022-08-06T21:15:26.480Z,0.40
2022-08-06T21:18:11.166Z,0.40
2022-08-06T21:20:37.633Z,0.30
2022-08-06T21:23:04.138Z,0.30
2022-08-06T21:25:42.383Z,0.38
2022-08-06T21:28:13.333Z,0.30
2022-08-06T21:30:41.057Z,0.45
2022-08-06T21:33:08.198Z,0.43
2022-08-06T21:35:35.229Z,0.35
2022-08-06T21:38:01.839Z,0.40
2022-08-06T21:40:29.005Z,0.30
2022-08-06T21:42:55.697Z,0.30
2022-08-06T21:45:23.377Z,0.32
2022-08-06T21:47:50.633Z,0.40
2022-08-06T21:50:19.572Z,0.50
2022-08-06T21:52:52.008Z,0.40
2022-08-06T21:56:37.363Z,0.32
2022-08-06T21:58:05.038Z,0.40
2022-08-06T22:00:36.864Z,0.50
2022-08-06T22:03:07.168Z,0.30
2022-08-06T22:06:21.978Z,0.40
2022-08-06T22:08:38.340Z,0.20
2022-08-06T22:12:39.754Z,0.32
2022-08-06T22:14:01.137Z,0.30
2022-08-06T22:16:33.026Z,0.30
2022-08-06T22:19:00.723Z,0.40
2022-08-06T22:21:41.723Z,0.40
2022-08-06T22:24:14.542Z,0.30
2022-08-06T22:26:42.234Z,0.30
2022-08-06T22:29:17.791Z,0.38
2022-08-06T22:31:56.890Z,0.35
2022-08-06T22:34:26.012Z,0.30
2022-08-06T22:37:03.926Z,0.30
2022-08-06T22:39:34.582Z,0.20
2022-08-06T22:42:07.739Z,0.20
2022-08-06T22:44:57.433Z,0.47
2022-08-06T22:47:21.159Z,0.30
2022-08-06T22:50:00.521Z,0.35
2022-08-06T22:52:51.263Z,0.30
2022-08-06T22:55:17.928Z,0.30
2022-08-06T22:58:47.403Z,0.40
2022-08-06T23:00:33.068Z,0.30
2022-08-06T23:03:00.654Z,0.30
2022-08-06T23:05:30.734Z,0.40
2022-08-06T23:07:57.832Z,0.20
2022-08-06T23:10:26.965Z,0.30
2022-08-06T23:12:56.685Z,0.32
2022-08-06T23:15:39.143Z,0.30
2022-08-06T23:18:08.260Z,0.30
2022-08-06T23:20:36.318Z,0.50
2022-08-06T23:23:04.316Z,0.45
2022-08-06T23:25:59.364Z,0.20
2022-08-06T23:28:17.913Z,0.35
2022-08-06T23:30:44.445Z,0.30
2022-08-06T23:33:10.893Z,0.28
2022-08-06T23:35:38.091Z,0.20
2022-08-06T23:38:32.192Z,0.30
2022-08-06T23:40:51.915Z,0.20
2022-08-06T23:43:19.344Z,0.40
2022-08-06T23:45:47.407Z,0.28
2022-08-06T23:48:14.690Z,0.20
2022-08-06T23:50:52.752Z,0.30
2022-08-06T23:54:07.684Z,0.30
2022-08-06T23:56:06.690Z,0.30
2022-08-06T23:58:36.288Z,0.20
